الصفحة الرئيسية
METAR-TAF:

METAR-TAF

مطار :

مطار سوهاج الدولي

سوهاج, مصر

دائرة عرض: 26-20-25N, خط طول: 31-44-20E, ارتفاع: 70 متر

مراقبة الطقس الحالي

تاريخ ووقت الإصدار 1ساعة و 29 دقيقة قبل الساعة 03:00UTC
ريح 6 عقدة من الغرب
درجة الحرارة 9°درجة مئوية
الرطوبة 66%
ضغط 1019 hPa
الرؤية 10 كم أو أكثر
الغيوم لا تقل 1500 م ولا وجود لمزنة ركامية السحاب الأسود

METAR: HESG 100300Z 28006KT CAVOK 09/03 Q1019 NOSIG

زمن: 06:29 (04:29 UTC)

توقعات

تاريخ ووقت الإصدار 5ساعات و 29 دقيقة قبل الساعة 23:00UTC
التوقعات صالحة من10 الساعة 00 UTC إلى 11 الساعة 06 UTC
ريح 14 عقدة من الشمال الغربي
الرؤية 10 كم أو أكثر
الغيوم لا تقل 1500 م ولا وجود لمزنة ركامية السحاب الأسود

TAF: HESG 092300Z 1000/1106 31014KT CAVOK

أرصاد الطقس والتوقعات من أكثر من 4000 مطار (تقارير الطقس للمطار METAR والتنبؤ بالطقس بالمطارTAF).

المحطات المتاحة هي النقط الصفراء والحمراء على الخريطة.

حرك المؤشر فوق النقطة لمعرفة اسم المحطة.

ثم انقر لمعرفة أرصاد وتوقعات الطقس.

لتغيير الخارطة: اضغط على الأزرار الخضراء مع رمز الصليب الأسود للتكبير. على الزر الأخضر مع شرطة للتصغير، أو على الأسهم الخضراء للخرائط المجاورة.


METAR-TAF: